Kristoffer Lustig

Chief Scout - Kalmar FF
4 Apr 2027
Sunday
Process

Personality

Adaptability (3) Ambition (4) Controversy (17) Loyalty (4) Pressure (12) Professionalism (16) Sportsmanship (6) Temperament (8)

Profile

Coaching Style Democratic
License Continental B
Determination 7
Man Management 4
Motivating 5
Discipline 5
Job Satisfaction
50%
Fatigue
0%
Role Chief Scout
Wage 29.1K p/w
Contract 14.03.2028

Performance

Behaviour Normal
Training Effectiveness
15%
Player Development
45%
Injury Prevention
35%
Tactical Implementation
25%

Recent Events

Attended a recruitment meeting now
Recommended a transfer target now
Assessed a player now
Assessed a player 7d ago
Assessed a player 7d ago
Assessed a player 7d ago
Assessed a player 7d ago
Assessed a player 7d ago

Currently Monitoring

165
Player Club Status Ability Confidence Watched Last Observed Latest Vote
George Hirst Stoke City Active 123 / 126 40% 1 03.04.2027 -
Themba Manyama Ajax Cape Town Active 106 / 91 40% 3 30.03.2027 -
Aaron Drinan Swindon Town Active 96 / 98 40% 2 30.03.2027 -
Moussakoye Diallo Stade Malien Active 99 / 108 40% 1 30.03.2027 -
Peter Itodo Metalist Active 118 / 104 40% 2 27.03.2027 -
Frédéric Maciel CSKA 1948 Active 108 / 102 40% 2 27.03.2027 -
Peter Shalulile Mamelodi Sundowns Active 130 / 132 40% 2 26.03.2027 -
Jack Marriott Reading Active 110 / 116 40% 1 26.03.2027 -
Salah Mohsen El Masry Active 110 / 105 40% 2 25.03.2027 -
Carlos Paraco Metalist Active 114 / 128 40% 2 25.03.2027 -
Harry Cornick AFC Wimbledon Active 89 / 104 40% 2 24.03.2027 -
Xiscu Martínez Fleetwood Town Active 85 / 91 40% 1 24.03.2027 -
Fábio Tavares Newport County Active 84 / 99 40% 1 24.03.2027 -
Jordan Roberts Stevenage Active 128 / 113 40% 4 22.03.2027 -
Robin Book BK Hacken Active 102 / 104 58% 1 22.03.2027 Approve
Michael Cheek Bromley Active 92 / 85 40% 1 22.03.2027 -
Edarlyn Reyes Arsenal Tula Active 121 / 95 40% 2 20.03.2027 -
Pylyp Budkivskyi Zorya Active 110 / 115 40% 1 20.03.2027 -
John Okoye Ebuka Ittihad Active 106 / 110 40% 2 17.03.2027 -
Alexandr Yushin Torpedo Moscow Active 104 / 89 40% 3 15.03.2027 -
Diego Valencia Gornik Leczna Active 110 / 119 40% 2 15.03.2027 -
Danyil Alefirenko Chornomorets Active 107 / 117 40% 2 14.03.2027 -
Kagiso Malinga Bidvest Wits Active 89 / 99 40% 3 12.03.2027 -
Hlompho Modiba Black Aces Active 93 / 81 40% 1 11.03.2027 -
Daniel Udoh Salford City Active 115 / 108 40% 1 08.03.2027 -
Sam Nombe Milton Keynes Dons Active 114 / 111 40% 3 07.03.2027 -
Jean-Pierre Nsame Pogon Active 135 / 104 40% 2 07.03.2027 -
Amos Inusah Wa All Stars Active 105 / 126 40% 1 06.03.2027 -
Matty Stevens AFC Wimbledon Active 95 / 109 40% 1 05.03.2027 -
Mykola Haiduchyk Polissia Active 103 / 118 40% 1 05.03.2027 -
Wasiu Jimoh Police Union Active 84 / 107 40% 1 04.03.2027 -
Alexandr Kokorin Aris Active 105 / 133 40% 1 04.03.2027 -
Jerome Karelse Golden Arrows Active 95 / 116 40% 1 01.03.2027 -
Lorenzo Insigne Sampdoria Active 143 / 127 40% 1 28.02.2027 -
Thokozani Sekotlong University of Pretoria Active 111 / 109 40% 1 26.02.2027 -
Domi Berlanga Vicenza Active 101 / 96 40% 2 24.02.2027 -
Eric Larsson Gefle Active 93 / 99 55% 1 22.02.2027 -
Nikos Karelis Sliema Wanderers Active 95 / 105 40% 1 22.02.2027 -
Dániel Lukács Puskas Akademia Active 108 / 105 40% 2 20.02.2027 -
Felipe Fernández Vorskla Active 110 / 104 40% 1 20.02.2027 -
Jerónimo Porto Lapegüe Slask Active 97 / 121 40% 1 17.02.2027 -
Celso Sidney Cherno More Active 90 / 113 40% 1 14.02.2027 -
Mikael Ishak Lech Active 140 / 116 40% 1 12.02.2027 -
Martín Álvarez Barnsley Active 128 / 112 40% 1 12.02.2027 -
Wandile Duba Bidvest Wits Active 88 / 93 40% 1 09.02.2027 -
Rui Costa Port Vale Active 112 / 120 40% 1 09.02.2027 -
Evidence Mokoena Platinum Stars Active 84 / 87 40% 1 08.02.2027 -
Yeangel Montero Naxxar Lions Active 110 / 106 40% 1 31.01.2027 -
Jordan Amissah Burton Albion Active 115 / 101 40% 2 28.01.2027 -
Sławomir Abramowicz Jagiellonia Active 134 / 135 40% 1 28.01.2027 -
Myles Roberts Doncaster Rovers Active 87 / 101 40% 3 27.01.2027 -
Martin Velichkov Lokomotiv Sofia Active 94 / 109 40% 2 27.01.2027 -
Will Dennis Milton Keynes Dons Active 112 / 93 40% 1 26.01.2027 -
Zach Hemming Chesterfield Active 96 / 105 40% 1 26.01.2027 -
Riccardo Gagno Vicenza Active 111 / 118 40% 3 25.01.2027 -
Corey Addai Stockport County Active 98 / 93 40% 4 25.01.2027 -
Stephen Amankona Aduana Stars Active 110 / 105 40% 1 25.01.2027 -
Thomas Agyepong Berekum Chelsea Active 84 / 90 40% 1 25.01.2027 -
Vladimir Nikolov Slavia Sofia Active 103 / 98 40% 1 23.01.2027 -
Ivan Lomaev Ufa Active 98 / 108 40% 1 23.01.2027 -
Evidence Billiat Ajax Cape Town Active 117 / 105 40% 5 22.01.2027 -
Karabo Molefe New Edubiase United Active 70 / 85 40% 1 22.01.2027 -
Vitor Eudes Fluminense Active 120 / 111 40% 1 20.01.2027 -
Heorhii Yermakov Metalist Active 131 / 118 40% 2 19.01.2027 -
Yurii-Volodymyr Hereta Rukh Active 93 / 104 40% 1 19.01.2027 -
Nathan Bishop AFC Wimbledon Active 111 / 95 40% 2 15.01.2027 -
Nicolás Sumavil Platense Active 129 / 131 40% 1 15.01.2027 -
Assad Al Hamlawi Universitatea Craiova Active 140 / 131 40% 1 13.01.2027 -
Denys Ihnatenko Livyi Bereh Active 113 / 99 40% 3 12.01.2027 -
Isak Pettersson IF Elfsborg Active 106 / 111 40% 1 10.01.2027 -
Tyrese Shade Burton Albion Active 103 / 103 40% 1 10.01.2027 -
Kahraba ENPPI Active 113 / 110 40% 1 10.01.2027 -
Maksym Voitikhovskyi Bukovyna Active 90 / 102 40% 1 09.01.2027 -
Jackson Smith Barnsley Active 103 / 82 40% 1 08.01.2027 -
Taye Ashby-Hammond Walsall Rejected 117 / 116 40% 1 04.01.2027 Needs More Info
Marcelo Miño Debrecen Active 120 / 111 40% 3 02.01.2027 -
Daniil Khudyakov Sturm Graz Active 138 / 129 40% 1 02.01.2027 -
Tom Booth Crewe Alexandra Active 91 / 103 40% 1 01.01.2027 -
Đorđe Nikolić Cukaricki Active 117 / 127 40% 2 31.12.2026 -
Luke Southwood Bristol Rovers Active 121 / 103 40% 2 30.12.2026 -
Mandla Jali SuperSport United Active 125 / 108 40% 2 29.12.2026 -
Ivan Luquetta Neftekhimik Active 97 / 106 40% 1 29.12.2026 -
Rivaldo Ngcobo Free State Stars Active 120 / 92 40% 1 29.12.2026 -
João Valido Chaves Active 124 / 107 40% 2 28.12.2026 -
Patrik Demjén MTK Budapest Active 99 / 115 40% 1 28.12.2026 -
Elia Boseggia Novara Active 93 / 103 40% 1 26.12.2026 -
Oleksandr Saputin Zorya Active 100 / 114 40% 3 25.12.2026 -
Octavio Bianchi HNK Vukovar 1991 Active 116 / 122 40% 1 25.12.2026 -
Qara Ozobic Inter Active 86 / 90 40% 1 25.12.2026 -
Felix Kyei Medeama Active 92 / 92 40% 1 22.12.2026 -
Lewis McCann Fleetwood Town Active 85 / 111 40% 1 22.12.2026 -
Facundo Suárez Instituto Active 124 / 131 40% 1 22.12.2026 -
Johan Brattberg Helsingborg Active 111 / 100 40% 1 19.12.2026 -
Timur Kraikov Sokol Active 98 / 107 40% 1 19.12.2026 -
Martin Vantruba Spartak Trnava Active 126 / 96 40% 2 17.12.2026 -
Lukas Gütlbauer Wolfsberger AC Active 115 / 109 40% 1 17.12.2026 -
Nikita Kokarev Krylya Sovetov Active 108 / 126 40% 1 15.12.2026 -
Kwame Opoku Asante Kotoko Active 104 / 83 40% 1 15.12.2026 -
Franko Kolić Istra 1961 Active 117 / 121 40% 2 13.12.2026 -
Lewis Ward Stevenage Active 99 / 74 40% 1 13.12.2026 -
Ivan Pakholiuk Kolos Active 122 / 115 40% 3 12.12.2026 -
Luciano Jachfe Nueva Chicago Active 103 / 103 40% 1 11.12.2026 -
Brian Bwire Polokwane City Active 77 / 88 40% 2 10.12.2026 -
Cristopher Fiermarin Defensa y Justicia Active 112 / 132 40% 1 10.12.2026 -
Víctor Cabezas Union Magdalena Active 119 / 124 40% 1 08.12.2026 -
Joke Efevwerha Bloemfontein Celtic Active 82 / 101 40% 1 07.12.2026 -
János Uram Vasas Active 89 / 99 40% 1 06.12.2026 -
Elis Bishesari IFK Goteborg Active 121 / 128 40% 1 04.12.2026 -
Michael Creek Inter Active 109 / 102 40% 3 02.12.2026 -
Adam Jakubech MFK Michalovce Active 89 / 103 40% 4 02.12.2026 -
Sergiu Ratiu Pandurii Active 89 / 121 40% 1 29.11.2026 -
Vadym Yushchyshyn UCSA Active 79 / 90 40% 1 29.11.2026 -
Joaquín Enrico San Telmo Active 92 / 114 40% 1 27.11.2026 -
Szymon Weirauch Lechia Active 119 / 111 40% 1 27.11.2026 -
Marios Siabanis Volos NPS Active 120 / 100 40% 1 26.11.2026 -
Andrei Vlad Viitorul Active 101 / 99 40% 1 26.11.2026 -
Percy Kekana Platinum Stars Active 111 / 99 40% 2 25.11.2026 -
Lévi Ntumba Slavia Sofia Active 90 / 93 40% 1 22.11.2026 -
Sébastien Cibois Portimonense Active 97 / 121 40% 3 19.11.2026 -
Pontus Dahlberg Lillestrom Active 105 / 102 40% 2 17.11.2026 -
Mattias Lamhauge Stromsgodset Active 104 / 102 40% 3 15.11.2026 -
Ilja Tuseev Chelyabinsk Active 79 / 89 40% 1 15.11.2026 -
Nikola Simić TSC Active 103 / 104 40% 3 08.11.2026 -
Robby McCrorie NK Varazdin Active 113 / 100 40% 2 08.11.2026 -
Mathew Hudson Oldham Athletic Active 91 / 109 40% 2 07.11.2026 -
Biola Sabitu Remo Stars Active 111 / 97 40% 1 07.11.2026 -
Henrich Ravas Cracovia Active 95 / 98 40% 2 05.11.2026 -
Daniil Frolkin Fakel Active 118 / 94 40% 1 05.11.2026 -
Richard Ludha MFK Skalica Active 116 / 124 40% 1 28.10.2026 -
Dragan Rosić Vojvodina Active 114 / 102 40% 1 27.10.2026 -
John Amah Plateau United Active 84 / 101 40% 2 25.10.2026 -
Rostislav Soldatenko Torpedo Moscow Active 89 / 106 40% 2 25.10.2026 -
Moisés Gallo Zulia Active 94 / 92 40% 1 21.10.2026 -
Vasil Simeonov Montana Active 115 / 105 40% 2 20.10.2026 -
Vincent Edafe Warri Wolves Active 104 / 94 40% 3 19.10.2026 -
Metod Jurhar Voluntari Active 120 / 112 40% 1 19.10.2026 -
Felix Jakobsson Hammarby Active 107 / 100 40% 1 18.10.2026 -
Michael Atata Ikorodu City Active 83 / 102 40% 1 14.10.2026 -
Brian Opondo Kakamega Homeboyz Active 79 / 97 40% 1 13.10.2026 -
Mohamed Camara Asante Kotoko Active 100 / 109 40% 1 12.10.2026 -
Martin Trnovský Podbrezova Active 127 / 108 40% 1 12.10.2026 -
Ottó Hindrich Legia Active 118 / 130 40% 1 11.10.2026 -
Ani Ozoemena Rivers United Active 81 / 93 40% 2 09.10.2026 -
Luka Lijeskić Radnicki 1923 Active 102 / 124 40% 1 09.10.2026 -
Ramahlwe Mphela Free State Stars Active 101 / 87 40% 1 07.10.2026 -
Bojan Milosavljević Septemvri Active 89 / 98 40% 1 06.10.2026 -
Elias Hadaya Sandefjord Active 123 / 100 40% 1 05.10.2026 -
Alexandru Dragusin Astra Active 97 / 122 40% 1 05.10.2026 -
Stefan Hubocan FK Senica Active 118 / 91 40% 1 03.10.2026 -
Ikenna Benjamin Bayelsa United Active 103 / 75 40% 2 28.09.2026 -
Lautaro Amadé Defensa y Justicia Active 132 / 129 40% 1 27.09.2026 -
Jökull Andrésson FH Active 91 / 108 40% 1 27.09.2026 -
Árni Marinó Einarsson IA Active 99 / 112 40% 1 25.09.2026 -
Franco Carretero Deportivo Lara Active 88 / 106 40% 1 24.09.2026 -
Mustapha Lawal Shooting Stars Active 102 / 95 40% 1 23.09.2026 -
Ştefan Târnovanu FCSB Active 116 / 121 40% 1 21.09.2026 -
Sindri Kristinn Ólafsson Keflavik Active 107 / 100 40% 1 21.09.2026 -
Strahinja Manojlović Radnicki Nis Active 107 / 121 40% 1 19.09.2026 -
Tim Rönning Halmstad Active 100 / 104 40% 1 15.09.2026 -
Ifeanyi Emmanuel Niger Tornadoes Active 84 / 99 40% 1 07.09.2026 -
Dimitar Sheytanov CSKA 1948 Active 127 / 122 40% 1 07.09.2026 -
David Barbona Defensa y Justicia Active 124 / 133 40% 1 12.08.2026 -
Bautista Arricau OB Active 94 / 102 40% 1 11.08.2026 -
Eric Ramírez Carabobo Active 127 / 105 40% 1 03.08.2026 -
Lewis Morgan San Diego Football Club Active 133 / 129 40% 1 02.08.2026 -